Time;durP1;ratioP1;P1;durP2;ratioP2;P2;SDS_P1;SDS_P2;PMS_P1;PMS_P2;Temp;Humidity;BMP_temperature;BMP_pressure;BME280_temperature;BME280_humidity;BME280_pressure;Samples;Min_cycle;Max_cycle;Signal;HPM_P1;HPM_P2
2023/09/24 00:00:20;;;;;;;11.93;11.47;;;15.10;1.00;;;;;;4838348;29;20896;-82
2023/09/24 00:02:50;;;;;;;11.47;11.07;;;15.00;1.00;;;;;;4836672;29;20585;-82
2023/09/24 00:05:19;;;;;;;11.10;10.80;;;14.90;1.00;;;;;;4837086;29;20497;-80
2023/09/24 00:07:51;;;;;;;10.47;10.17;;;14.90;1.00;;;;;;4838181;29;20521;-83
2023/09/24 00:10:20;;;;;;;10.90;10.60;;;14.90;1.00;;;;;;4836006;29;20470;-82
2023/09/24 00:12:49;;;;;;;11.73;11.33;;;14.80;1.00;;;;;;4839247;29;20528;-81
2023/09/24 00:15:17;;;;;;;11.13;10.53;;;14.70;1.00;;;;;;4835176;29;20469;-81
2023/09/24 00:17:46;;;;;;;10.80;10.40;;;14.70;1.00;;;;;;4837883;29;20487;-82
2023/09/24 00:20:16;;;;;;;10.93;10.53;;;14.60;1.00;;;;;;4835055;29;20476;-81
2023/09/24 00:22:47;;;;;;;11.20;10.80;;;14.60;1.00;;;;;;4837431;29;20538;-82
2023/09/24 00:25:16;;;;;;;10.57;10.30;;;14.60;1.00;;;;;;4840686;29;20554;-82
2023/09/24 00:27:45;;;;;;;11.20;10.70;;;14.60;1.00;;;;;;4840680;29;20510;-80
2023/09/24 00:30:14;;;;;;;10.70;10.40;;;14.60;1.00;;;;;;4838406;29;20498;-80
2023/09/24 00:32:42;;;;;;;10.70;10.40;;;14.50;1.00;;;;;;4836345;29;20537;-82
2023/09/24 00:35:11;;;;;;;11.00;10.60;;;14.50;1.00;;;;;;4837970;29;20464;-81
2023/09/24 00:37:39;;;;;;;11.00;10.67;;;14.50;1.00;;;;;;4836197;29;20466;-81
2023/09/24 00:40:11;;;;;;;11.47;10.77;;;14.40;1.00;;;;;;4837012;29;20481;-80
2023/09/24 00:42:40;;;;;;;11.87;11.10;;;14.40;1.00;;;;;;4832976;29;20580;-78
2023/09/24 00:45:11;;;;;;;11.27;10.87;;;14.40;1.00;;;;;;4834417;29;20501;-79
2023/09/24 00:47:43;;;;;;;10.73;10.43;;;14.40;1.00;;;;;;4837253;29;20492;-79
2023/09/24 00:50:12;;;;;;;11.53;11.13;;;14.40;1.00;;;;;;4836337;29;21082;-81
2023/09/24 00:52:43;;;;;;;10.70;10.50;;;14.30;1.00;;;;;;4836196;29;20501;-81
2023/09/24 00:55:13;;;;;;;11.30;10.90;;;14.30;1.00;;;;;;4837439;29;20465;-82
2023/09/24 00:57:43;;;;;;;10.47;10.17;;;14.20;1.00;;;;;;4838686;29;20545;-81
2023/09/24 01:00:17;;;;;;;11.77;11.13;;;14.20;1.00;;;;;;4835250;29;20481;-81
2023/09/24 01:02:49;;;;;;;11.60;11.30;;;14.20;1.00;;;;;;4838400;29;21022;-81
2023/09/24 01:05:18;;;;;;;11.80;11.50;;;14.20;1.00;;;;;;4834906;29;20469;-81
2023/09/24 01:07:47;;;;;;;12.23;11.83;;;14.10;1.00;;;;;;4835991;29;22148;-81
2023/09/24 01:10:15;;;;;;;12.30;11.90;;;14.10;1.00;;;;;;4838316;29;20466;-80
2023/09/24 01:12:55;;;;;;;11.90;11.50;;;14.10;1.00;;;;;;4839753;29;20497;-80
2023/09/24 01:15:25;;;;;;;11.90;11.43;;;14.10;1.00;;;;;;4841189;29;20466;-80
2023/09/24 01:17:53;;;;;;;11.63;11.33;;;14.10;1.00;;;;;;4841213;29;20464;-81
2023/09/24 01:20:23;;;;;;;11.63;11.33;;;14.10;1.00;;;;;;4841334;29;20462;-81
2023/09/24 01:22:53;;;;;;;11.90;11.60;;;14.10;1.00;;;;;;4837842;29;20473;-81
2023/09/24 01:25:21;;;;;;;12.10;11.53;;;14.00;1.00;;;;;;4842553;29;21031;-80
2023/09/24 01:27:50;;;;;;;12.00;11.60;;;14.10;1.00;;;;;;4844080;29;21012;-79
2023/09/24 01:30:18;;;;;;;12.37;11.80;;;14.10;1.00;;;;;;4841333;29;20477;-81
2023/09/24 01:32:50;;;;;;;12.03;11.60;;;14.00;1.00;;;;;;4840499;29;20476;-81
2023/09/24 01:35:25;;;;;;;12.17;11.77;;;14.00;1.00;;;;;;4841078;29;20511;-80
2023/09/24 01:37:58;;;;;;;12.27;11.77;;;14.00;1.00;;;;;;4840448;29;20521;-79
2023/09/24 01:40:32;;;;;;;12.37;11.87;;;14.00;1.00;;;;;;4838706;29;20463;-81
2023/09/24 01:43:01;;;;;;;12.47;12.10;;;13.90;1.00;;;;;;4840192;29;20517;-80
2023/09/24 01:45:29;;;;;;;12.13;11.60;;;13.90;1.00;;;;;;4842781;29;20470;-82
2023/09/24 01:47:57;;;;;;;12.40;11.90;;;13.90;1.00;;;;;;4838950;29;20478;-79
2023/09/24 01:50:27;;;;;;;13.30;12.80;;;13.90;1.00;;;;;;4838011;29;20469;-81
2023/09/24 01:52:58;;;;;;;11.50;11.20;;;13.80;1.00;;;;;;4838121;29;21280;-79
2023/09/24 01:55:26;;;;;;;11.20;10.70;;;13.80;1.00;;;;;;4838280;29;20552;-79
2023/09/24 01:57:55;;;;;;;11.40;10.80;;;13.80;1.00;;;;;;4841703;29;20544;-83
2023/09/24 02:00:25;;;;;;;11.57;11.17;;;13.70;1.00;;;;;;4841408;29;21015;-81
2023/09/24 02:02:54;;;;;;;12.40;12.00;;;13.60;1.00;;;;;;4839395;29;20474;-80
2023/09/24 02:05:23;;;;;;;11.67;11.27;;;13.60;1.00;;;;;;4851326;29;20462;-79
2023/09/24 02:07:52;;;;;;;11.33;11.03;;;13.60;1.00;;;;;;4837500;29;20458;-80
2023/09/24 02:10:21;;;;;;;11.90;11.50;;;13.60;1.00;;;;;;4840540;29;20592;-79
2023/09/24 02:12:51;;;;;;;12.20;11.80;;;13.60;1.00;;;;;;4836547;29;20500;-80
2023/09/24 02:15:20;;;;;;;11.87;11.43;;;13.60;1.00;;;;;;4839302;29;20514;-81
2023/09/24 02:17:48;;;;;;;11.60;11.20;;;13.60;1.00;;;;;;4840232;29;20462;-81
2023/09/24 02:20:24;;;;;;;11.30;11.00;;;13.70;1.00;;;;;;4839562;29;21152;-79
2023/09/24 02:22:56;;;;;;;11.60;11.30;;;13.60;1.00;;;;;;4838808;29;21447;-79
2023/09/24 02:25:27;;;;;;;11.70;11.30;;;13.60;1.00;;;;;;4841340;29;20458;-83
2023/09/24 02:27:56;;;;;;;11.40;11.10;;;13.50;1.00;;;;;;4840579;29;20462;-79
2023/09/24 02:30:25;;;;;;;11.87;11.47;;;13.60;1.00;;;;;;4843358;29;20544;-80
2023/09/24 02:32:59;;;;;;;11.33;11.03;;;13.50;1.00;;;;;;4854085;29;20486;-83
2023/09/24 02:35:28;;;;;;;11.70;11.30;;;13.50;1.00;;;;;;4838081;29;20474;-81
2023/09/24 02:37:56;;;;;;;11.40;11.10;;;13.40;1.00;;;;;;4835500;29;20470;-80
2023/09/24 02:40:27;;;;;;;12.00;11.40;;;13.40;1.00;;;;;;4834750;29;20469;-82
2023/09/24 02:42:57;;;;;;;12.20;11.70;;;13.30;1.00;;;;;;4838522;29;20496;-80
2023/09/24 02:45:27;;;;;;;12.13;11.60;;;13.40;1.00;;;;;;4837422;29;20471;-79
2023/09/24 02:47:55;;;;;;;11.50;11.03;;;13.40;1.00;;;;;;4837859;29;20457;-80
2023/09/24 02:50:25;;;;;;;12.27;11.77;;;13.30;1.00;;;;;;4834874;29;21204;-81
2023/09/24 02:52:56;;;;;;;12.00;11.60;;;13.30;1.00;;;;;;4834888;29;21091;-80
2023/09/24 02:55:27;;;;;;;11.90;11.33;;;13.30;1.00;;;;;;4837398;29;20830;-81
2023/09/24 02:57:55;;;;;;;11.60;11.20;;;13.30;1.00;;;;;;4840575;29;20460;-81
2023/09/24 03:00:33;;;;;;;11.47;11.17;;;13.30;1.00;;;;;;4837296;29;20465;-80
2023/09/24 03:03:03;;;;;;;11.83;11.43;;;13.30;1.00;;;;;;4837661;29;20521;-82
2023/09/24 03:05:32;;;;;;;11.50;11.10;;;13.20;1.00;;;;;;4837545;29;20470;-82
2023/09/24 03:08:02;;;;;;;11.90;11.33;;;13.30;1.00;;;;;;4835876;29;20470;-81
2023/09/24 03:10:33;;;;;;;11.30;10.90;;;13.20;1.00;;;;;;4839262;29;21274;-82
2023/09/24 03:13:02;;;;;;;11.60;11.20;;;13.20;1.00;;;;;;4841663;29;20550;-82
2023/09/24 03:15:31;;;;;;;11.27;10.93;;;13.20;1.00;;;;;;4843811;29;20480;-80
2023/09/24 03:17:59;;;;;;;11.77;11.47;;;13.20;1.00;;;;;;4841789;29;20465;-82
2023/09/24 03:20:29;;;;;;;12.63;12.03;;;13.20;1.00;;;;;;4840225;29;20470;-81
2023/09/24 03:23:02;;;;;;;12.00;11.57;;;13.10;1.00;;;;;;4836873;29;20502;-80
2023/09/24 03:25:32;;;;;;;11.60;11.30;;;13.20;1.00;;;;;;4840292;29;20568;-80
2023/09/24 03:28:02;;;;;;;11.67;11.20;;;13.10;1.00;;;;;;4837033;29;20462;-82
2023/09/24 03:30:30;;;;;;;11.60;11.30;;;13.10;1.00;;;;;;4839121;29;21080;-80
2023/09/24 03:33:00;;;;;;;11.20;10.80;;;13.00;1.00;;;;;;4838052;29;20489;-80
2023/09/24 03:35:29;;;;;;;11.57;11.13;;;13.00;1.00;;;;;;4836417;29;20899;-79
2023/09/24 03:37:58;;;;;;;12.10;11.50;;;12.90;1.00;;;;;;4840956;29;20457;-80
2023/09/24 03:40:28;;;;;;;11.53;11.23;;;13.00;1.00;;;;;;4835444;29;20454;-80
2023/09/24 03:42:59;;;;;;;11.10;10.80;;;13.00;1.00;;;;;;4836778;29;20484;-79
2023/09/24 03:45:27;;;;;;;11.50;11.10;;;12.90;1.00;;;;;;4836049;29;20450;-79
2023/09/24 03:47:56;;;;;;;11.20;10.90;;;12.90;1.00;;;;;;4832333;29;20473;-80
2023/09/24 03:50:26;;;;;;;11.43;11.03;;;12.90;1.00;;;;;;4836441;29;20497;-80
2023/09/24 03:52:56;;;;;;;11.20;10.90;;;12.90;1.00;;;;;;4837484;29;20573;-78
2023/09/24 03:55:24;;;;;;;11.87;11.30;;;12.80;1.00;;;;;;4837041;29;20466;-80
2023/09/24 03:57:53;;;;;;;10.80;10.50;;;12.80;1.00;;;;;;4838764;29;20478;-80
2023/09/24 04:00:25;;;;;;;11.40;10.90;;;12.70;1.00;;;;;;4835726;29;20514;-80
2023/09/24 04:02:54;;;;;;;10.90;10.60;;;12.80;1.00;;;;;;4835761;29;20598;-78
2023/09/24 04:05:23;;;;;;;11.60;11.20;;;12.70;1.00;;;;;;4838162;29;20466;-79
2023/09/24 04:07:55;;;;;;;11.50;11.10;;;12.70;1.00;;;;;;4841731;29;21141;-83
2023/09/24 04:10:27;;;;;;;12.17;11.33;;;12.80;1.00;;;;;;4841922;29;20480;-82
2023/09/24 04:12:57;;;;;;;11.10;10.80;;;12.80;1.00;;;;;;4838185;29;20485;-81
2023/09/24 04:15:31;;;;;;;11.30;10.90;;;12.80;1.00;;;;;;4839999;29;20466;-81
2023/09/24 04:18:00;;;;;;;11.03;10.63;;;12.80;1.00;;;;;;4841305;29;20976;-83
2023/09/24 04:20:33;;;;;;;10.43;10.20;;;12.80;1.00;;;;;;4841476;29;20478;-81
2023/09/24 04:23:02;;;;;;;10.73;10.43;;;12.80;1.00;;;;;;4839255;29;21016;-80
2023/09/24 04:25:30;;;;;;;10.83;10.43;;;12.70;1.00;;;;;;4839650;29;20453;-80
2023/09/24 04:27:59;;;;;;;10.60;10.40;;;12.70;1.00;;;;;;4841395;29;20468;-81
2023/09/24 04:30:28;;;;;;;11.70;11.10;;;12.60;1.00;;;;;;4840217;29;20497;-80
2023/09/24 04:33:02;;;;;;;11.33;10.93;;;12.60;1.00;;;;;;4839101;29;20819;-81
2023/09/24 04:35:31;;;;;;;10.90;10.60;;;12.60;1.00;;;;;;4837215;29;20468;-81
2023/09/24 04:37:59;;;;;;;10.97;10.57;;;12.60;1.00;;;;;;4840634;29;20452;-83
2023/09/24 04:40:27;;;;;;;10.80;10.50;;;12.50;1.00;;;;;;4840540;29;20610;-81
2023/09/24 04:42:56;;;;;;;10.73;10.17;;;12.60;1.00;;;;;;4850323;29;20538;-81
2023/09/24 04:45:24;;;;;;;10.33;9.93;;;12.60;1.00;;;;;;4846724;29;20683;-81
2023/09/24 04:47:53;;;;;;;10.60;10.23;;;12.50;1.00;;;;;;4860097;29;20472;-80
2023/09/24 04:50:25;;;;;;;10.60;10.10;;;12.50;1.00;;;;;;4846583;29;20486;-81
2023/09/24 04:52:55;;;;;;;10.50;10.20;;;12.40;1.00;;;;;;4844399;29;20497;-80
2023/09/24 04:55:24;;;;;;;10.50;10.20;;;12.40;1.00;;;;;;4845219;29;20961;-82
2023/09/24 04:57:53;;;;;;;10.20;9.77;;;12.40;1.00;;;;;;4844876;29;20458;-80
2023/09/24 05:00:21;;;;;;;10.40;10.10;;;12.50;1.00;;;;;;4841166;29;20464;-82
2023/09/24 05:02:50;;;;;;;9.87;9.67;;;12.40;1.00;;;;;;4847667;29;21011;-80
2023/09/24 05:05:18;;;;;;;10.40;10.10;;;12.40;1.00;;;;;;4842308;29;20476;-82
2023/09/24 05:07:48;;;;;;;10.50;10.10;;;12.40;1.00;;;;;;4844023;29;20490;-83
2023/09/24 05:10:16;;;;;;;10.40;10.10;;;12.40;1.00;;;;;;4846404;29;20668;-84
2023/09/24 05:12:45;;;;;;;10.63;10.30;;;12.40;1.00;;;;;;4844013;29;20574;-82
2023/09/24 05:15:13;;;;;;;10.53;9.90;;;12.30;1.00;;;;;;4838059;29;20462;-80
2023/09/24 05:17:41;;;;;;;10.83;10.17;;;12.30;1.00;;;;;;4841060;29;20811;-81
2023/09/24 05:20:10;;;;;;;10.20;9.90;;;12.30;1.00;;;;;;4850862;29;20601;-79
2023/09/24 05:22:39;;;;;;;10.73;10.23;;;12.20;1.00;;;;;;4835876;29;20485;-80
2023/09/24 05:25:09;;;;;;;10.40;10.00;;;12.10;1.00;;;;;;4832370;29;21251;-80
2023/09/24 05:27:38;;;;;;;10.50;10.17;;;12.20;1.00;;;;;;4836455;29;20477;-79
2023/09/24 05:30:08;;;;;;;10.00;9.70;;;12.30;1.00;;;;;;4829738;29;20478;-78
2023/09/24 05:32:36;;;;;;;10.60;10.20;;;12.30;1.00;;;;;;4834373;29;20596;-81
2023/09/24 05:35:05;;;;;;;11.20;10.73;;;12.20;1.00;;;;;;4837484;29;20538;-80
2023/09/24 05:37:34;;;;;;;12.10;11.50;;;12.30;1.00;;;;;;4835014;29;20982;-80
2023/09/24 05:40:03;;;;;;;11.50;11.03;;;11.90;1.00;;;;;;4837295;29;20458;-80
2023/09/24 05:42:33;;;;;;;11.67;11.17;;;12.20;1.00;;;;;;4837843;29;20884;-81
2023/09/24 05:45:02;;;;;;;11.53;10.90;;;12.20;1.00;;;;;;4837874;29;21274;-82
2023/09/24 05:47:31;;;;;;;12.07;11.53;;;12.30;1.00;;;;;;4839130;29;20458;-80
2023/09/24 05:50:02;;;;;;;11.80;11.30;;;12.30;1.00;;;;;;4841113;29;20576;-81
2023/09/24 05:52:31;;;;;;;11.10;10.73;;;12.30;1.00;;;;;;4835828;29;20485;-81
2023/09/24 05:54:59;;;;;;;11.40;10.90;;;12.30;1.00;;;;;;4839160;29;21051;-82
2023/09/24 05:57:27;;;;;;;11.20;10.70;;;12.40;1.00;;;;;;4840074;29;20499;-81
2023/09/24 05:59:57;;;;;;;10.77;10.47;;;12.40;1.00;;;;;;4842585;29;20462;-84
2023/09/24 06:02:26;;;;;;;10.90;10.50;;;12.30;1.00;;;;;;4832038;29;20493;-83
2023/09/24 06:04:54;;;;;;;11.87;11.27;;;12.30;1.00;;;;;;4840777;29;20988;-82
2023/09/24 06:07:24;;;;;;;11.80;11.20;;;12.30;1.00;;;;;;4841204;29;20508;-81
2023/09/24 06:09:52;;;;;;;12.03;11.43;;;12.40;1.00;;;;;;4844567;29;20533;-82
2023/09/24 06:12:22;;;;;;;11.17;10.83;;;12.40;1.00;;;;;;4842766;29;20912;-82
2023/09/24 06:14:50;;;;;;;11.40;10.90;;;12.40;1.00;;;;;;4840157;29;20834;-83
2023/09/24 06:17:19;;;;;;;11.00;10.67;;;12.50;1.00;;;;;;4844299;29;20490;-83
2023/09/24 06:19:48;;;;;;;11.70;11.30;;;12.60;1.00;;;;;;4844025;29;20466;-82
2023/09/24 06:22:16;;;;;;;11.57;11.20;;;12.70;1.00;;;;;;4843805;29;21000;-82
2023/09/24 06:24:44;;;;;;;11.30;11.00;;;12.70;1.00;;;;;;4844944;29;20466;-82
2023/09/24 06:27:14;;;;;;;11.90;11.43;;;12.70;1.00;;;;;;4842667;29;20490;-83
2023/09/24 06:29:42;;;;;;;12.50;12.00;;;12.80;1.00;;;;;;4841030;29;20957;-80
2023/09/24 06:32:10;;;;;;;11.40;11.10;;;12.80;1.00;;;;;;4837773;29;20545;-82
2023/09/24 06:34:41;;;;;;;11.27;10.97;;;12.90;1.00;;;;;;4842451;29;20498;-81
2023/09/24 06:37:09;;;;;;;11.67;11.30;;;12.80;1.00;;;;;;4843992;29;20454;-83
2023/09/24 06:39:37;;;;;;;11.30;10.70;;;12.80;1.00;;;;;;4844370;29;20497;-81
2023/09/24 06:42:06;;;;;;;11.20;10.90;;;12.80;1.00;;;;;;4843692;29;20482;-83
2023/09/24 06:44:35;;;;;;;11.00;10.70;;;12.80;1.00;;;;;;4841646;29;20469;-82
2023/09/24 06:47:03;;;;;;;10.60;10.40;;;12.70;1.00;;;;;;4833532;29;20509;-82
2023/09/24 06:49:31;;;;;;;10.80;10.57;;;12.80;1.00;;;;;;4839972;29;20533;-82
2023/09/24 06:52:01;;;;;;;11.30;10.90;;;12.80;1.00;;;;;;4843704;29;20493;-83
2023/09/24 06:54:29;;;;;;;11.27;10.97;;;12.80;1.00;;;;;;4840377;29;20524;-83
2023/09/24 06:56:57;;;;;;;11.40;11.10;;;12.80;1.00;;;;;;4843678;29;20466;-83
2023/09/24 06:59:26;;;;;;;11.97;11.63;;;12.80;1.00;;;;;;4841895;29;20470;-83
2023/09/24 07:01:54;;;;;;;11.10;10.80;;;12.80;1.00;;;;;;4842910;29;20521;-83
2023/09/24 07:04:23;;;;;;;11.13;10.90;;;12.80;1.00;;;;;;4843737;29;20472;-83
2023/09/24 07:06:51;;;;;;;12.10;11.70;;;12.90;1.00;;;;;;4843775;29;20493;-82
2023/09/24 07:09:21;;;;;;;12.40;12.00;;;13.00;1.00;;;;;;4843179;29;20474;-81
2023/09/24 07:11:49;;;;;;;12.27;11.97;;;13.10;1.00;;;;;;4842217;29;21360;-80
2023/09/24 07:14:19;;;;;;;12.13;11.73;;;13.20;1.00;;;;;;4842628;29;20480;-82
2023/09/24 07:16:48;;;;;;;11.10;10.70;;;13.30;1.00;;;;;;4856573;29;20474;-83
2023/09/24 07:19:19;;;;;;;11.80;11.50;;;13.30;1.00;;;;;;4858475;29;20473;-82
2023/09/24 07:21:49;;;;;;;11.83;11.43;;;13.30;1.00;;;;;;4841846;29;20484;-80
2023/09/24 07:24:17;;;;;;;13.33;12.00;;;13.40;1.00;;;;;;4843570;29;20530;-83
2023/09/24 07:26:46;;;;;;;12.20;11.80;;;13.50;1.00;;;;;;4835839;29;20470;-83
2023/09/24 07:29:15;;;;;;;12.20;11.50;;;13.60;1.00;;;;;;4835046;29;20522;-84
2023/09/24 07:31:43;;;;;;;12.03;11.70;;;13.70;30.70;;;;;;4839626;29;20485;-83
2023/09/24 07:34:11;;;;;;;11.63;11.23;;;13.90;1.00;;;;;;4840541;29;21019;-84
2023/09/24 07:36:39;;;;;;;12.13;11.83;;;14.00;1.00;;;;;;4841529;29;20466;-83
2023/09/24 07:39:28;;;;;;;12.63;12.23;;;14.10;1.00;;;;;;4842243;29;20855;-82
2023/09/24 07:41:57;;;;;;;12.67;12.17;;;14.30;1.00;;;;;;4843301;29;20489;-84
2023/09/24 07:44:26;;;;;;;12.83;12.33;;;14.60;1.00;;;;;;4836593;29;20446;-84
2023/09/24 07:46:54;;;;;;;13.00;12.40;;;14.90;1.00;;;;;;4843818;29;20602;-84
2023/09/24 07:49:22;;;;;;;13.63;13.00;;;15.50;1.00;;;;;;4838710;29;20613;-83
2023/09/24 07:51:50;;;;;;;12.50;12.00;;;16.00;1.00;;;;;;4842647;29;20556;-83
2023/09/24 07:54:19;;;;;;;13.10;12.70;;;16.30;99.90;;;;;;4841720;29;20529;-84
2023/09/24 07:56:47;;;;;;;13.40;13.00;;;16.70;99.90;;;;;;4839242;29;21032;-82
2023/09/24 07:59:16;;;;;;;13.13;12.73;;;17.10;99.90;;;;;;4842881;29;21168;-82
2023/09/24 08:01:45;;;;;;;13.13;12.63;;;17.50;99.90;;;;;;4841858;29;20501;-83
2023/09/24 08:04:13;;;;;;;13.40;12.87;;;17.90;99.90;;;;;;4841140;29;20466;-84
2023/09/24 08:06:42;;;;;;;14.10;13.57;;;18.20;99.90;;;;;;4837181;29;20465;-82
2023/09/24 08:09:11;;;;;;;13.20;12.70;;;18.60;99.90;;;;;;4840096;29;20508;-82
2023/09/24 08:11:54;;;;;;;12.27;11.93;;;18.90;99.90;;;;;;4841092;29;20489;-81
2023/09/24 08:14:24;;;;;;;12.43;11.87;;;19.40;99.90;;;;;;4850518;29;20808;-84
2023/09/24 08:16:53;;;;;;;11.63;11.23;;;19.70;99.90;;;;;;4851469;29;20458;-83
2023/09/24 08:19:22;;;;;;;11.97;11.50;;;20.00;99.90;;;;;;4837679;29;20473;-83
2023/09/24 08:21:50;;;;;;;11.00;10.70;;;20.30;99.90;;;;;;4839194;29;20903;-85
2023/09/24 08:24:18;;;;;;;12.53;11.83;;;20.60;99.90;;;;;;4841572;29;20565;-85
2023/09/24 08:26:46;;;;;;;11.90;11.47;;;20.80;99.90;;;;;;4837964;29;20553;-84
2023/09/24 08:29:15;;;;;;;11.87;11.37;;;21.10;99.90;;;;;;4840091;29;20489;-85
2023/09/24 08:31:44;;;;;;;11.00;10.60;;;21.30;99.90;;;;;;4840078;29;20513;-83
2023/09/24 08:34:13;;;;;;;10.83;10.20;;;21.40;99.90;;;;;;4840095;29;20480;-84
2023/09/24 08:36:41;;;;;;;10.93;10.73;;;21.50;99.90;;;;;;4837513;29;20558;-85
2023/09/24 08:39:09;;;;;;;11.20;10.70;;;21.80;99.90;;;;;;4840659;29;20457;-84
2023/09/24 08:41:44;;;;;;;10.60;10.37;;;22.10;99.90;;;;;;4834274;29;20486;-83
2023/09/24 08:44:17;;;;;;;10.93;10.53;;;22.20;99.90;;;;;;4839859;29;20466;-83
2023/09/24 08:46:50;;;;;;;11.07;10.67;;;22.30;99.90;;;;;;4839499;29;20465;-85
2023/09/24 08:49:19;;;;;;;9.90;9.70;;;22.40;99.90;;;;;;4832257;29;21014;-85
2023/09/24 08:51:47;;;;;;;10.50;10.13;;;22.60;99.90;;;;;;4840768;29;20717;-84
2023/09/24 08:54:16;;;;;;;10.80;10.40;;;22.70;99.90;;;;;;4841604;29;20518;-84
2023/09/24 08:56:44;;;;;;;10.93;10.60;;;23.00;99.90;;;;;;4840086;29;20459;-84
2023/09/24 08:59:12;;;;;;;9.77;9.30;;;23.30;99.90;;;;;;4839983;29;20472;-84
2023/09/24 09:01:40;;;;;;;9.80;9.50;;;23.70;99.90;;;;;;4838734;29;20569;-84
2023/09/24 09:04:10;;;;;;;10.20;9.73;;;23.90;99.90;;;;;;4839009;29;20470;-83
2023/09/24 09:06:38;;;;;;;9.73;9.33;;;24.10;99.90;;;;;;4835449;29;20465;-84
2023/09/24 09:09:06;;;;;;;9.97;9.37;;;24.40;99.90;;;;;;4838923;29;20530;-85
2023/09/24 09:11:39;;;;;;;9.50;9.10;;;24.70;99.90;;;;;;4838973;29;20493;-83
2023/09/24 09:14:11;;;;;;;9.70;8.93;;;25.10;99.90;;;;;;4834897;29;20557;-85
2023/09/24 09:16:57;;;;;;;9.27;8.97;;;25.40;99.90;;;;;;4840062;29;20465;-85
2023/09/24 09:19:30;;;;;;;9.03;8.77;;;25.60;99.90;;;;;;4838799;29;20481;-85
2023/09/24 09:22:16;;;;;;;8.90;8.70;;;25.90;99.90;;;;;;4838687;29;20470;-85
2023/09/24 09:24:44;;;;;;;9.33;8.97;;;26.30;99.90;;;;;;4837190;29;20458;-85
2023/09/24 09:27:12;;;;;;;9.70;9.30;;;26.50;99.90;;;;;;4838217;29;20488;-85
2023/09/24 09:29:41;;;;;;;9.70;9.40;;;26.70;99.90;;;;;;4835831;29;21000;-85
2023/09/24 09:32:09;;;;;;;9.67;9.23;;;26.90;99.90;;;;;;4838167;29;21003;-85
2023/09/24 09:34:54;;;;;;;9.40;9.10;;;27.10;99.90;;;;;;4841422;29;20560;-84
2023/09/24 09:37:22;;;;;;;10.03;9.57;;;27.50;99.90;;;;;;4841435;29;20451;-84
2023/09/24 09:39:52;;;;;;;9.47;9.17;;;27.70;99.90;;;;;;4841574;29;20465;-85
2023/09/24 09:42:22;;;;;;;9.10;8.87;;;27.50;99.90;;;;;;4842311;29;20475;-85
2023/09/24 09:44:52;;;;;;;9.10;8.60;;;27.50;99.90;;;;;;4842688;29;20465;-85
2023/09/24 09:47:22;;;;;;;9.10;8.87;;;27.60;99.90;;;;;;4841947;29;20527;-85
2023/09/24 09:49:58;;;;;;;9.07;8.77;;;27.60;99.90;;;;;;4841812;29;20465;-84
2023/09/24 09:52:34;;;;;;;8.27;8.07;;;27.50;99.90;;;;;;4840458;29;20489;-84
2023/09/24 09:55:07;;;;;;;8.00;7.60;;;26.90;99.90;;;;;;4842151;29;20466;-83
2023/09/24 09:57:36;;;;;;;7.80;7.50;;;25.80;99.90;;;;;;4840562;29;20847;-85
2023/09/24 10:00:07;;;;;;;7.87;7.57;;;25.00;99.90;;;;;;4839287;29;20470;-84
2023/09/24 10:02:37;;;;;;;8.27;8.07;;;24.50;99.90;;;;;;4840547;29;20570;-86
2023/09/24 10:05:07;;;;;;;7.97;7.77;;;24.00;99.90;;;;;;4843500;29;20469;-84
2023/09/24 10:07:37;;;;;;;8.47;8.17;;;23.90;99.90;;;;;;4843202;29;20976;-85
2023/09/24 10:10:42;;;;;;;8.90;8.60;;;23.70;99.90;;;;;;4839074;29;21320;-84
2023/09/24 10:13:42;;;;;;;8.30;8.10;;;23.40;99.90;;;;;;4838206;29;20500;-85
2023/09/24 10:16:30;;;;;;;9.10;8.80;;;23.10;99.90;;;;;;4842754;29;20462;-85
2023/09/24 10:18:59;;;;;;;9.10;8.80;;;23.20;99.90;;;;;;4843465;29;20458;-84
2023/09/24 10:21:34;;;;;;;8.80;8.50;;;23.20;99.90;;;;;;4842377;29;20451;-83
2023/09/24 10:24:47;;;;;;;8.50;8.23;;;23.00;99.90;;;;;;4839164;29;20467;-83
2023/09/24 10:27:15;;;;;;;8.30;8.00;;;22.70;99.90;;;;;;4782624;29;20469;-83
2023/09/24 10:30:14;;;;;;;8.83;8.40;;;23.00;99.90;;;;;;4822695;29;20554;-84
2023/09/24 10:32:49;;;;;;;9.57;9.27;;;23.20;99.90;;;;;;4841851;29;20501;-84
2023/09/24 10:35:18;;;;;;;9.47;9.20;;;23.30;99.90;;;;;;4856174;29;20878;-84
2023/09/24 10:38:06;;;;;;;9.50;9.00;;;23.30;99.90;;;;;;4841705;29;20446;-83
2023/09/24 10:40:35;;;;;;;8.90;8.60;;;23.40;99.90;;;;;;4842286;29;21092;-83
2023/09/24 10:43:17;;;;;;;9.07;8.83;;;23.40;99.90;;;;;;4842318;29;20493;-85
2023/09/24 10:45:46;;;;;;;9.80;9.60;;;23.60;99.90;;;;;;4841692;29;20470;-84
2023/09/24 10:48:16;;;;;;;9.33;9.10;;;23.70;99.90;;;;;;4839090;29;20464;-85
2023/09/24 10:50:44;;;;;;;10.10;9.60;;;23.80;99.90;;;;;;4846789;29;20522;-84
2023/09/24 10:53:19;;;;;;;9.63;9.33;;;23.90;99.90;;;;;;4842932;29;20541;-85
2023/09/24 10:55:47;;;;;;;9.40;9.07;;;24.00;99.90;;;;;;4845414;29;20969;-85
2023/09/24 10:58:35;;;;;;;9.00;8.70;;;23.70;99.90;;;;;;4847132;29;20488;-84
2023/09/24 11:01:04;;;;;;;9.20;8.80;;;23.70;99.90;;;;;;4840860;29;20909;-84
2023/09/24 11:03:35;;;;;;;7.83;7.53;;;23.70;99.90;;;;;;4839225;29;20474;-84
2023/09/24 11:06:07;;;;;;;7.40;7.20;;;23.80;99.90;;;;;;4838471;29;20818;-79
2023/09/24 11:08:37;;;;;;;7.87;7.60;;;23.80;99.90;;;;;;4837331;29;20473;-82
2023/09/24 11:11:05;;;;;;;8.00;7.80;;;24.10;99.90;;;;;;4830270;29;20466;-78
2023/09/24 11:13:33;;;;;;;8.50;8.20;;;24.20;99.90;;;;;;4834405;29;20493;-78
2023/09/24 11:16:02;;;;;;;7.87;7.53;;;24.20;99.90;;;;;;4833661;29;20526;-80
2023/09/24 11:18:32;;;;;;;8.20;8.00;;;23.80;99.90;;;;;;4835663;29;21033;-80
2023/09/24 11:21:00;;;;;;;8.60;8.40;;;23.60;99.90;;;;;;4835153;29;20469;-79
2023/09/24 11:23:37;;;;;;;8.67;8.37;;;23.20;99.90;;;;;;4836140;29;20474;-81
2023/09/24 11:26:06;;;;;;;8.50;8.30;;;22.90;99.90;;;;;;4836410;29;20546;-80
2023/09/24 11:28:34;;;;;;;7.57;7.47;;;22.70;99.90;;;;;;4838640;29;20588;-79
2023/09/24 11:31:02;;;;;;;8.23;7.90;;;22.60;99.90;;;;;;4832032;29;21039;-80
2023/09/24 11:33:32;;;;;;;7.93;7.73;;;22.40;99.90;;;;;;4838415;29;20570;-82
2023/09/24 11:36:00;;;;;;;8.30;8.03;;;22.30;99.90;;;;;;4832782;29;20554;-78
2023/09/24 11:38:31;;;;;;;7.73;7.53;;;22.30;99.90;;;;;;4835056;29;20469;-82
2023/09/24 11:41:08;;;;;;;8.40;8.20;;;22.30;99.90;;;;;;4834793;29;20460;-79
2023/09/24 11:43:37;;;;;;;8.53;8.23;;;22.30;99.90;;;;;;4836030;29;21089;-82
2023/09/24 11:46:17;;;;;;;7.97;7.57;;;22.40;99.90;;;;;;4835307;29;20555;-80
2023/09/24 11:48:46;;;;;;;8.00;7.80;;;22.20;99.90;;;;;;4834658;29;20471;-80
2023/09/24 11:51:15;;;;;;;8.33;8.13;;;22.10;99.90;;;;;;4835389;29;20800;-80
2023/09/24 11:53:44;;;;;;;8.00;7.80;;;22.20;99.90;;;;;;4836537;29;20533;-83
2023/09/24 11:56:14;;;;;;;8.00;7.80;;;22.30;99.90;;;;;;4836146;29;20498;-82
2023/09/24 11:58:42;;;;;;;7.67;7.47;;;22.20;99.90;;;;;;4835264;29;20462;-80
2023/09/24 12:01:13;;;;;;;7.40;7.30;;;22.20;99.90;;;;;;4837621;29;20565;-80
2023/09/24 12:03:42;;;;;;;8.37;8.17;;;22.30;99.90;;;;;;4835211;29;20466;-80
2023/09/24 12:06:11;;;;;;;8.53;8.20;;;22.40;99.90;;;;;;4838088;29;21251;-80
2023/09/24 12:08:40;;;;;;;8.10;7.90;;;22.40;99.90;;;;;;4834672;29;20542;-79
2023/09/24 12:11:08;;;;;;;8.30;8.00;;;22.40;99.90;;;;;;4837114;29;20465;-78
2023/09/24 12:13:38;;;;;;;8.07;7.87;;;22.30;99.90;;;;;;4831002;29;20501;-79
2023/09/24 12:16:06;;;;;;;8.30;7.93;;;22.20;99.90;;;;;;4835033;29;20461;-80
2023/09/24 12:18:39;;;;;;;8.67;8.20;;;22.00;99.90;;;;;;4834916;29;20480;-80
2023/09/24 12:21:10;;;;;;;8.10;7.70;;;22.00;99.90;;;;;;4833373;29;20940;-80
2023/09/24 12:23:39;;;;;;;8.23;7.93;;;22.00;99.90;;;;;;4832378;29;20976;-80
2023/09/24 12:26:07;;;;;;;8.10;7.90;;;22.20;99.90;;;;;;4832622;29;20458;-80
2023/09/24 12:28:37;;;;;;;8.67;8.27;;;22.20;99.90;;;;;;4832469;29;20466;-80
2023/09/24 12:31:05;;;;;;;8.40;8.00;;;22.30;99.90;;;;;;4831525;29;20458;-80
2023/09/24 12:33:34;;;;;;;8.03;7.83;;;22.40;99.90;;;;;;4834328;29;20532;-81
2023/09/24 12:36:02;;;;;;;8.30;8.10;;;22.40;99.90;;;;;;4834114;29;20464;-80
2023/09/24 12:38:31;;;;;;;8.67;8.43;;;22.50;99.90;;;;;;4834063;29;20593;-81
2023/09/24 12:41:00;;;;;;;8.37;8.07;;;22.50;99.90;;;;;;4834109;29;21024;-78
2023/09/24 12:43:28;;;;;;;8.07;7.87;;;22.40;99.90;;;;;;4832755;29;20526;-79
2023/09/24 12:46:13;;;;;;;8.10;7.80;;;22.40;99.90;;;;;;4833991;29;20465;-79
2023/09/24 12:48:42;;;;;;;7.90;7.70;;;22.50;99.90;;;;;;4835105;29;20501;-78
2023/09/24 12:51:11;;;;;;;8.37;8.17;;;22.50;99.90;;;;;;4833309;29;21019;-79
2023/09/24 12:53:46;;;;;;;8.77;8.53;;;22.50;99.90;;;;;;4831394;29;20603;-81